createdAt,value
2023-01-26T00:00:42.212Z,100.00
2023-01-26T00:03:44.377Z,100.00
2023-01-26T00:06:45.784Z,100.00
2023-01-26T00:09:47.186Z,100.00
2023-01-26T00:12:48.705Z,100.00
2023-01-26T00:15:50.138Z,100.00
2023-01-26T00:18:51.622Z,100.00
2023-01-26T00:21:53.007Z,100.00
2023-01-26T00:24:54.414Z,100.00
2023-01-26T00:27:57.258Z,100.00
2023-01-26T00:31:06.195Z,100.00
2023-01-26T00:34:07.615Z,100.00
2023-01-26T00:37:09.019Z,100.00
2023-01-26T00:40:11.404Z,100.00
2023-01-26T00:43:13.084Z,100.00
2023-01-26T00:46:14.827Z,100.00
2023-01-26T00:49:16.221Z,100.00
2023-01-26T00:52:17.821Z,100.00
2023-01-26T00:55:19.613Z,100.00
2023-01-26T00:58:21.007Z,100.00
2023-01-26T01:01:24.220Z,100.00
2023-01-26T01:04:25.643Z,100.00
2023-01-26T01:07:27.403Z,100.00
2023-01-26T01:10:29.133Z,100.00
2023-01-26T01:13:30.646Z,100.00
2023-01-26T01:16:32.037Z,100.00
2023-01-26T01:19:33.443Z,100.00
2023-01-26T01:22:36.105Z,100.00
2023-01-26T01:25:37.479Z,100.00
2023-01-26T01:28:39.931Z,100.00
2023-01-26T01:31:43.113Z,100.00
2023-01-26T01:34:47.028Z,100.00
2023-01-26T01:37:48.511Z,100.00
2023-01-26T01:40:49.910Z,100.00
2023-01-26T01:43:51.701Z,100.00
2023-01-26T01:46:58.216Z,100.00
2023-01-26T01:49:59.610Z,100.00
2023-01-26T01:53:01.541Z,100.00
2023-01-26T01:56:08.196Z,100.00
2023-01-26T01:59:11.476Z,100.00
2023-01-26T02:02:14.562Z,100.00
2023-01-26T02:05:32.273Z,100.00
2023-01-26T02:08:38.119Z,100.00
2023-01-26T02:11:44.907Z,100.00
2023-01-26T02:14:46.528Z,100.00
2023-01-26T02:17:52.554Z,100.00
2023-01-26T02:20:59.032Z,100.00
2023-01-26T02:24:20.146Z,100.00
2023-01-26T02:27:21.647Z,100.00
2023-01-26T02:30:27.133Z,100.00
2023-01-26T02:33:31.286Z,100.00
2023-01-26T02:36:35.577Z,100.00
2023-01-26T02:39:53.634Z,100.00
2023-01-26T02:42:55.310Z,100.00
2023-01-26T02:45:56.809Z,100.00
2023-01-26T02:49:17.117Z,100.00
2023-01-26T02:52:21.681Z,100.00
2023-01-26T02:55:29.781Z,100.00
2023-01-26T02:58:32.279Z,100.00
2023-01-26T03:01:33.703Z,100.00
2023-01-26T03:04:35.090Z,100.00
2023-01-26T03:07:36.575Z,100.00
2023-01-26T03:10:38.436Z,100.00
2023-01-26T03:13:41.136Z,100.00
2023-01-26T03:16:42.852Z,100.00
2023-01-26T03:20:03.045Z,100.00
2023-01-26T03:23:26.861Z,100.00
2023-01-26T03:26:47.073Z,100.00
2023-01-26T03:29:48.693Z,100.00
2023-01-26T03:32:50.107Z,100.00
2023-01-26T03:35:53.999Z,100.00
2023-01-26T03:38:56.975Z,100.00
2023-01-26T03:42:17.681Z,100.00
2023-01-26T03:45:37.385Z,100.00
2023-01-26T03:48:57.657Z,100.00
2023-01-26T03:52:18.280Z,100.00
2023-01-26T03:55:38.617Z,100.00
2023-01-26T03:58:40.072Z,100.00
2023-01-26T04:02:02.595Z,100.00
2023-01-26T04:05:23.797Z,100.00
2023-01-26T04:08:30.341Z,100.00
2023-01-26T04:11:34.239Z,100.00
2023-01-26T04:14:54.358Z,100.00
2023-01-26T04:18:17.836Z,100.00
2023-01-26T04:21:35.667Z,100.00
2023-01-26T04:24:44.418Z,100.00
2023-01-26T04:27:46.495Z,100.00
2023-01-26T04:30:49.500Z,100.00
2023-01-26T04:33:51.309Z,100.00
2023-01-26T04:36:52.908Z,100.00
2023-01-26T04:39:57.462Z,100.00
2023-01-26T04:42:59.369Z,100.00
2023-01-26T04:46:03.259Z,100.00
2023-01-26T04:49:05.728Z,100.00
2023-01-26T04:52:08.662Z,100.00
2023-01-26T04:55:10.896Z,100.00
2023-01-26T04:58:14.628Z,100.00
2023-01-26T05:01:17.455Z,100.00
2023-01-26T05:04:19.021Z,100.00
2023-01-26T05:07:21.611Z,100.00
2023-01-26T05:10:23.373Z,100.00
2023-01-26T05:13:32.944Z,100.00
2023-01-26T05:16:48.305Z,100.00
2023-01-26T05:20:00.259Z,100.00
2023-01-26T05:23:15.829Z,100.00
2023-01-26T05:26:35.523Z,100.00
2023-01-26T05:29:40.264Z,100.00
2023-01-26T05:32:42.135Z,100.00
2023-01-26T05:35:43.608Z,100.00
2023-01-26T05:38:45.405Z,100.00
2023-01-26T05:41:46.864Z,100.00
2023-01-26T05:45:17.975Z,100.00
2023-01-26T05:48:19.736Z,100.00
2023-01-26T05:51:25.407Z,100.00
2023-01-26T05:54:26.859Z,100.00
2023-01-26T05:57:29.397Z,100.00
2023-01-26T06:00:38.472Z,100.00
2023-01-26T06:03:45.533Z,100.00
2023-01-26T06:06:47.026Z,100.00
2023-01-26T06:09:56.123Z,100.00
2023-01-26T06:13:15.548Z,100.00
2023-01-26T06:16:24.935Z,100.00
2023-01-26T06:19:26.441Z,100.00
2023-01-26T06:22:32.409Z,100.00
2023-01-26T06:25:34.354Z,100.00
2023-01-26T06:28:36.665Z,100.00
2023-01-26T06:31:38.160Z,100.00
2023-01-26T06:34:41.535Z,100.00
2023-01-26T06:37:43.337Z,100.00
2023-01-26T06:40:44.754Z,100.00
2023-01-26T06:43:48.336Z,100.00
2023-01-26T06:46:49.811Z,100.00
2023-01-26T06:49:51.419Z,100.00
2023-01-26T06:52:58.820Z,100.00
2023-01-26T06:56:28.936Z,100.00
2023-01-26T07:00:10.730Z,100.00
2023-01-26T07:03:29.227Z,100.00
2023-01-26T07:06:30.713Z,100.00
2023-01-26T07:09:32.196Z,100.00
2023-01-26T07:12:40.640Z,100.00
2023-01-26T07:15:42.117Z,100.00
2023-01-26T07:18:43.561Z,100.00
2023-01-26T07:21:44.990Z,100.00
2023-01-26T07:24:46.388Z,100.00
2023-01-26T07:27:47.808Z,100.00
2023-01-26T07:30:49.243Z,100.00
2023-01-26T07:33:50.667Z,100.00
2023-01-26T07:36:52.965Z,100.00
2023-01-26T07:39:54.457Z,100.00
2023-01-26T07:42:56.783Z,100.00
2023-01-26T07:46:16.549Z,100.00
2023-01-26T07:49:17.990Z,100.00
2023-01-26T07:52:19.407Z,100.00
2023-01-26T07:55:21.391Z,100.00
2023-01-26T07:58:22.915Z,100.00
2023-01-26T08:01:24.564Z,100.00
2023-01-26T08:04:26.088Z,100.00
2023-01-26T08:07:27.466Z,100.00
2023-01-26T08:10:31.530Z,100.00
2023-01-26T08:13:35.906Z,100.00
2023-01-26T08:16:37.641Z,100.00
2023-01-26T08:19:39.164Z,100.00
2023-01-26T08:22:40.582Z,100.00
2023-01-26T08:25:42.044Z,100.00
2023-01-26T08:28:44.076Z,100.00
2023-01-26T08:31:45.510Z,100.00
2023-01-26T08:34:46.936Z,100.00
2023-01-26T08:37:48.383Z,100.00
2023-01-26T08:40:53.625Z,100.00
2023-01-26T08:43:55.066Z,100.00
2023-01-26T08:46:56.463Z,100.00
2023-01-26T08:49:57.883Z,100.00
2023-01-26T08:52:59.261Z,100.00
2023-01-26T08:56:09.616Z,100.00
2023-01-26T08:59:11.117Z,100.00
2023-01-26T09:02:12.678Z,100.00
2023-01-26T09:05:14.288Z,100.00
2023-01-26T09:08:15.721Z,100.00
2023-01-26T09:11:17.125Z,100.00
2023-01-26T09:14:18.515Z,100.00
2023-01-26T09:17:19.903Z,100.00
2023-01-26T09:20:22.440Z,100.00
2023-01-26T09:23:23.823Z,100.00
2023-01-26T09:26:25.274Z,100.00
2023-01-26T09:29:26.665Z,100.00
2023-01-26T09:32:28.304Z,100.00
2023-01-26T09:35:30.610Z,100.00
2023-01-26T09:38:32.560Z,100.00
2023-01-26T09:41:52.547Z,100.00
2023-01-26T09:45:17.307Z,100.00
2023-01-26T09:49:17.482Z,100.00
2023-01-26T09:52:33.464Z,100.00
2023-01-26T09:55:35.318Z,100.00
2023-01-26T09:58:40.851Z,100.00
2023-01-26T10:01:51.149Z,100.00
2023-01-26T10:04:57.282Z,100.00
2023-01-26T10:08:00.333Z,100.00
2023-01-26T10:11:18.804Z,100.00
2023-01-26T10:14:42.487Z,100.00
2023-01-26T10:17:46.345Z,100.00
2023-01-26T10:20:54.715Z,100.00
2023-01-26T10:24:00.670Z,100.00
2023-01-26T10:27:02.164Z,100.00
2023-01-26T10:30:03.931Z,100.00
2023-01-26T10:33:16.380Z,100.00
2023-01-26T10:36:17.912Z,100.00
2023-01-26T10:39:19.510Z,100.00
2023-01-26T10:42:30.237Z,100.00
2023-01-26T10:45:33.644Z,100.00
2023-01-26T10:48:35.310Z,100.00
2023-01-26T10:51:44.447Z,100.00
2023-01-26T10:54:46.405Z,100.00
2023-01-26T10:57:47.913Z,100.00
2023-01-26T11:00:55.859Z,100.00
2023-01-26T11:04:12.149Z,100.00
2023-01-26T11:07:26.980Z,100.00
2023-01-26T11:10:38.929Z,100.00
2023-01-26T11:13:40.317Z,100.00
2023-01-26T11:16:47.578Z,100.00
2023-01-26T11:20:01.576Z,100.00
2023-01-26T11:23:05.869Z,100.00
2023-01-26T11:26:39.382Z,100.00
2023-01-26T11:29:55.943Z,100.00
2023-01-26T11:33:20.641Z,100.00
2023-01-26T11:36:47.965Z,100.00
2023-01-26T11:39:52.263Z,100.00
2023-01-26T11:42:53.558Z,100.00
2023-01-26T11:46:30.617Z,100.00
2023-01-26T11:49:58.096Z,100.00
2023-01-26T11:53:17.273Z,100.00
2023-01-26T11:56:42.976Z,100.00
2023-01-26T11:59:48.074Z,100.00
2023-01-26T12:02:59.286Z,100.00
2023-01-26T12:06:07.136Z,100.00
2023-01-26T12:09:18.818Z,100.00
2023-01-26T12:12:40.691Z,100.00
2023-01-26T12:15:48.938Z,100.00
2023-01-26T12:19:11.007Z,100.00
2023-01-26T12:22:20.404Z,100.00
2023-01-26T12:25:39.255Z,100.00
2023-01-26T12:28:59.384Z,100.00
2023-01-26T12:32:16.062Z,100.00
2023-01-26T12:35:31.236Z,100.00
2023-01-26T12:39:04.465Z,100.00
2023-01-26T12:42:11.942Z,100.00
2023-01-26T12:45:35.441Z,100.00
2023-01-26T12:48:44.681Z,100.00
2023-01-26T12:51:52.839Z,100.00
2023-01-26T12:55:06.542Z,100.00
2023-01-26T12:58:22.823Z,100.00
2023-01-26T13:01:26.741Z,100.00
2023-01-26T13:04:28.515Z,100.00
2023-01-26T13:07:39.077Z,100.00
2023-01-26T13:10:48.229Z,100.00
2023-01-26T13:13:53.658Z,100.00
2023-01-26T13:16:55.594Z,100.00
2023-01-26T13:19:59.811Z,100.00
2023-01-26T13:23:01.361Z,100.00
2023-01-26T13:26:17.493Z,100.00
2023-01-26T13:29:25.033Z,100.00
2023-01-26T13:32:26.441Z,100.00
2023-01-26T13:35:30.352Z,100.00
2023-01-26T13:38:52.828Z,100.00
2023-01-26T13:41:54.783Z,100.00
2023-01-26T13:45:15.047Z,100.00
2023-01-26T13:48:34.864Z,100.00
2023-01-26T13:51:36.914Z,100.00
2023-01-26T13:54:42.028Z,100.00
2023-01-26T13:57:43.433Z,100.00
2023-01-26T14:01:02.248Z,100.00
2023-01-26T14:04:06.108Z,100.00
2023-01-26T14:07:12.175Z,100.00
2023-01-26T14:10:19.720Z,100.00
2023-01-26T14:13:32.130Z,100.00
2023-01-26T14:16:37.539Z,100.00
2023-01-26T14:19:42.189Z,100.00
2023-01-26T14:22:43.669Z,100.00
2023-01-26T14:25:57.181Z,100.00
2023-01-26T14:29:00.457Z,100.00
2023-01-26T14:32:01.939Z,100.00
2023-01-26T14:35:03.668Z,100.00
2023-01-26T14:38:12.000Z,100.00
2023-01-26T14:41:23.295Z,100.00
2023-01-26T14:44:24.820Z,100.00
2023-01-26T14:47:33.066Z,100.00
2023-01-26T14:50:35.736Z,100.00
2023-01-26T14:53:37.422Z,100.00
2023-01-26T14:56:40.528Z,100.00
2023-01-26T14:59:42.088Z,100.00
2023-01-26T15:02:47.218Z,100.00
2023-01-26T15:05:48.615Z,100.00
2023-01-26T15:09:05.422Z,100.00
2023-01-26T15:12:16.718Z,100.00
2023-01-26T15:15:20.172Z,100.00
2023-01-26T15:18:21.830Z,100.00
2023-01-26T15:21:32.730Z,100.00
2023-01-26T15:24:34.269Z,100.00
2023-01-26T15:27:36.879Z,100.00
2023-01-26T15:30:38.717Z,100.00
2023-01-26T15:33:46.027Z,100.00
2023-01-26T15:36:49.751Z,100.00
2023-01-26T15:39:51.236Z,99.70
2023-01-26T15:43:17.866Z,99.88
2023-01-26T15:46:19.289Z,100.00
2023-01-26T15:49:22.863Z,100.00
2023-01-26T15:52:30.060Z,100.00
2023-01-26T15:55:33.193Z,99.99
2023-01-26T15:58:36.604Z,100.00
2023-01-26T16:01:38.028Z,100.00
2023-01-26T16:04:39.417Z,100.00
2023-01-26T16:07:40.825Z,100.00
2023-01-26T16:10:42.664Z,100.00
2023-01-26T16:14:01.150Z,100.00
2023-01-26T16:17:12.420Z,100.00
2023-01-26T16:20:13.874Z,100.00
2023-01-26T16:23:21.434Z,100.00
2023-01-26T16:26:22.867Z,100.00
2023-01-26T16:29:24.291Z,100.00
2023-01-26T16:32:30.872Z,99.62
2023-01-26T16:35:32.418Z,98.06
2023-01-26T16:38:33.909Z,98.33
2023-01-26T16:41:35.501Z,98.02
2023-01-26T16:44:36.914Z,98.75
2023-01-26T16:47:38.352Z,98.61
2023-01-26T16:50:40.896Z,98.06
2023-01-26T16:53:42.485Z,98.81
2023-01-26T16:56:44.250Z,97.78
2023-01-26T16:59:45.661Z,95.68
2023-01-26T17:02:49.487Z,96.99
2023-01-26T17:05:50.875Z,96.05
2023-01-26T17:08:52.717Z,96.64
2023-01-26T17:11:54.115Z,96.00
2023-01-26T17:14:55.538Z,96.38
2023-01-26T17:17:57.294Z,96.04
2023-01-26T17:21:02.566Z,96.01
2023-01-26T17:24:04.389Z,96.84
2023-01-26T17:27:05.947Z,94.36
2023-01-26T17:30:08.863Z,96.39
2023-01-26T17:33:10.255Z,96.11
2023-01-26T17:36:12.548Z,97.08
2023-01-26T17:39:14.643Z,98.06
2023-01-26T17:42:16.113Z,97.98
2023-01-26T17:45:17.564Z,98.68
2023-01-26T17:48:18.963Z,98.70
2023-01-26T17:51:21.485Z,98.53
2023-01-26T17:54:22.989Z,97.83
2023-01-26T17:57:24.401Z,97.72
2023-01-26T18:00:25.817Z,97.90
2023-01-26T18:03:27.342Z,97.79
2023-01-26T18:06:29.427Z,97.19
2023-01-26T18:09:31.236Z,97.32
2023-01-26T18:12:33.199Z,97.93
2023-01-26T18:15:36.901Z,97.33
2023-01-26T18:18:38.448Z,98.05
2023-01-26T18:21:39.899Z,99.58
2023-01-26T18:24:41.315Z,98.28
2023-01-26T18:27:43.242Z,99.59
2023-01-26T18:30:44.907Z,100.00
2023-01-26T18:33:46.569Z,100.00
2023-01-26T18:36:48.148Z,100.00
2023-01-26T18:39:49.583Z,100.00
2023-01-26T18:42:54.312Z,100.00
2023-01-26T18:45:55.764Z,100.00
2023-01-26T18:49:01.062Z,99.73
2023-01-26T18:52:02.708Z,97.07
2023-01-26T18:55:04.524Z,97.46
2023-01-26T18:58:06.285Z,98.15
2023-01-26T19:01:12.487Z,96.39
2023-01-26T19:04:15.007Z,95.12
2023-01-26T19:07:17.402Z,95.90
2023-01-26T19:10:18.982Z,94.49
2023-01-26T19:13:20.472Z,92.97
2023-01-26T19:16:24.317Z,92.87
2023-01-26T19:19:25.793Z,92.85
2023-01-26T19:22:27.223Z,92.95
2023-01-26T19:25:28.642Z,91.14
2023-01-26T19:28:30.137Z,91.04
2023-01-26T19:31:32.422Z,90.58
2023-01-26T19:34:34.966Z,90.14
2023-01-26T19:37:36.365Z,91.02
2023-01-26T19:40:37.847Z,90.54
2023-01-26T19:43:39.595Z,90.62
2023-01-26T19:46:41.012Z,89.93
2023-01-26T19:49:42.411Z,89.49
2023-01-26T19:52:43.886Z,89.31
2023-01-26T19:55:45.277Z,89.45
2023-01-26T19:58:51.913Z,91.08
2023-01-26T20:01:53.406Z,89.71
2023-01-26T20:04:54.805Z,89.18
2023-01-26T20:07:56.206Z,89.16
2023-01-26T20:11:08.440Z,90.41
2023-01-26T20:14:11.108Z,89.72
2023-01-26T20:17:12.636Z,88.82
2023-01-26T20:20:14.204Z,89.17
2023-01-26T20:23:15.613Z,90.55
2023-01-26T20:26:17.816Z,93.25
2023-01-26T20:29:20.657Z,94.28
2023-01-26T20:32:22.166Z,95.48
2023-01-26T20:35:23.617Z,96.14
2023-01-26T20:38:25.155Z,97.56
2023-01-26T20:41:29.270Z,99.31
2023-01-26T20:44:31.101Z,99.25
2023-01-26T20:47:34.083Z,99.84
2023-01-26T20:50:39.949Z,99.44
2023-01-26T20:53:42.073Z,99.64
2023-01-26T20:56:45.636Z,100.00
2023-01-26T20:59:47.162Z,100.00
2023-01-26T21:02:48.607Z,100.00
2023-01-26T21:05:50.027Z,100.00
2023-01-26T21:08:57.290Z,100.00
2023-01-26T21:11:58.726Z,100.00
2023-01-26T21:15:00.168Z,100.00
2023-01-26T21:18:01.576Z,100.00
2023-01-26T21:21:06.846Z,100.00
2023-01-26T21:24:08.317Z,100.00
2023-01-26T21:27:09.799Z,100.00
2023-01-26T21:30:12.080Z,100.00
2023-01-26T21:33:13.735Z,100.00
2023-01-26T21:36:17.676Z,100.00
2023-01-26T21:39:22.025Z,100.00
2023-01-26T21:42:23.580Z,100.00
2023-01-26T21:45:43.881Z,100.00
2023-01-26T21:48:45.312Z,100.00
2023-01-26T21:52:05.819Z,100.00
2023-01-26T21:55:07.534Z,100.00
2023-01-26T21:58:27.915Z,100.00
2023-01-26T22:01:31.466Z,100.00
2023-01-26T22:04:32.944Z,100.00
2023-01-26T22:07:34.403Z,100.00
2023-01-26T22:10:35.804Z,100.00
2023-01-26T22:13:37.237Z,100.00
2023-01-26T22:16:38.839Z,100.00
2023-01-26T22:19:40.260Z,100.00
2023-01-26T22:22:41.657Z,100.00
2023-01-26T22:25:43.054Z,100.00
2023-01-26T22:28:49.965Z,100.00
2023-01-26T22:31:51.877Z,100.00
2023-01-26T22:34:53.416Z,100.00
2023-01-26T22:37:56.463Z,100.00
2023-01-26T22:40:58.829Z,100.00
2023-01-26T22:44:00.561Z,100.00
2023-01-26T22:47:02.019Z,100.00
2023-01-26T22:50:03.784Z,100.00
2023-01-26T22:53:05.197Z,100.00
2023-01-26T22:56:08.154Z,100.00
2023-01-26T22:59:09.637Z,100.00
2023-01-26T23:02:11.169Z,100.00
2023-01-26T23:05:12.593Z,100.00
2023-01-26T23:08:13.981Z,100.00
2023-01-26T23:11:19.924Z,100.00
2023-01-26T23:14:21.332Z,100.00
2023-01-26T23:17:22.725Z,100.00
2023-01-26T23:20:24.189Z,100.00
2023-01-26T23:23:26.458Z,100.00
2023-01-26T23:26:27.950Z,100.00
2023-01-26T23:29:29.381Z,100.00
2023-01-26T23:32:30.761Z,100.00
2023-01-26T23:35:32.162Z,100.00
2023-01-26T23:38:34.122Z,100.00
2023-01-26T23:41:35.567Z,100.00
2023-01-26T23:44:36.958Z,100.00
2023-01-26T23:47:38.428Z,100.00
2023-01-26T23:50:39.958Z,100.00
2023-01-26T23:53:41.366Z,100.00
2023-01-26T23:56:42.818Z,100.00
2023-01-26T23:59:44.191Z,100.00
